createdAt,value
2023-01-29T00:00:15.707Z,31.73
2023-01-29T00:02:45.284Z,30.47
2023-01-29T00:05:27.079Z,31.20
2023-01-29T00:07:56.989Z,29.87
2023-01-29T00:10:26.862Z,32.60
2023-01-29T00:12:55.313Z,31.13
2023-01-29T00:15:27.124Z,29.97
2023-01-29T00:17:56.066Z,30.70
2023-01-29T00:20:26.269Z,30.70
2023-01-29T00:22:54.757Z,30.97
2023-01-29T00:25:23.473Z,29.40
2023-01-29T00:27:51.973Z,28.00
2023-01-29T00:30:21.589Z,29.80
2023-01-29T00:32:50.235Z,29.03
2023-01-29T00:35:19.060Z,30.87
2023-01-29T00:37:49.225Z,32.43
2023-01-29T00:40:20.099Z,32.60
2023-01-29T00:43:06.214Z,28.70
2023-01-29T00:45:36.819Z,30.20
2023-01-29T00:48:08.112Z,29.33
2023-01-29T00:50:36.467Z,28.33
2023-01-29T00:53:08.467Z,30.17
2023-01-29T00:55:36.844Z,30.03
2023-01-29T00:58:06.099Z,30.40
2023-01-29T01:00:34.696Z,29.50
2023-01-29T01:03:05.985Z,29.57
2023-01-29T01:05:34.956Z,31.67
2023-01-29T01:08:03.604Z,32.60
2023-01-29T01:10:33.559Z,32.23
2023-01-29T01:13:04.367Z,31.43
2023-01-29T01:15:36.588Z,31.57
2023-01-29T01:18:06.062Z,29.60
2023-01-29T01:20:37.146Z,29.57
2023-01-29T01:23:06.226Z,29.63
2023-01-29T01:25:36.503Z,30.63
2023-01-29T01:28:04.998Z,28.37
2023-01-29T01:30:33.616Z,30.07
2023-01-29T01:33:02.381Z,28.90
2023-01-29T01:35:32.315Z,31.20
2023-01-29T01:38:00.793Z,31.43
2023-01-29T01:40:29.457Z,31.33
2023-01-29T01:43:01.282Z,30.37
2023-01-29T01:45:32.229Z,28.50
2023-01-29T01:48:04.701Z,27.70
2023-01-29T01:50:37.891Z,28.17
2023-01-29T01:53:09.671Z,30.57
2023-01-29T01:55:44.243Z,30.70
2023-01-29T01:58:21.013Z,27.63
2023-01-29T02:00:49.578Z,29.23
2023-01-29T02:03:38.758Z,27.67
2023-01-29T02:06:25.074Z,27.23
2023-01-29T02:09:16.925Z,27.33
2023-01-29T02:11:45.449Z,29.67
2023-01-29T02:14:15.462Z,30.20
2023-01-29T02:16:44.876Z,29.47
2023-01-29T02:19:20.207Z,28.13
2023-01-29T02:22:11.499Z,27.30
2023-01-29T02:25:09.950Z,30.07
2023-01-29T02:28:11.861Z,29.77
2023-01-29T02:30:44.142Z,30.57
2023-01-29T02:33:22.730Z,27.90
2023-01-29T02:36:00.638Z,26.70
2023-01-29T02:38:41.920Z,27.03
2023-01-29T02:41:16.743Z,26.47
2023-01-29T02:43:49.011Z,26.33
2023-01-29T02:46:25.055Z,28.60
2023-01-29T02:48:59.308Z,30.00
2023-01-29T02:51:36.006Z,31.80
2023-01-29T02:54:09.787Z,29.33
2023-01-29T02:56:44.018Z,31.87
2023-01-29T02:59:18.817Z,31.33
2023-01-29T03:01:53.075Z,32.57
2023-01-29T03:04:27.674Z,31.77
2023-01-29T03:07:01.553Z,32.33
2023-01-29T03:09:35.110Z,31.37
2023-01-29T03:12:20.146Z,31.93
2023-01-29T03:15:09.981Z,31.17
2023-01-29T03:17:45.509Z,30.13
2023-01-29T03:20:19.058Z,32.87
2023-01-29T03:22:52.377Z,31.57
2023-01-29T03:25:41.627Z,33.77
2023-01-29T03:28:31.107Z,32.60
2023-01-29T03:31:22.099Z,30.97
2023-01-29T03:34:04.487Z,32.37
2023-01-29T03:36:40.001Z,32.03
2023-01-29T03:39:11.591Z,32.00
2023-01-29T03:41:47.784Z,32.13
2023-01-29T03:44:20.350Z,33.63
2023-01-29T03:46:57.350Z,32.67
2023-01-29T03:49:33.757Z,32.07
2023-01-29T03:52:10.380Z,33.40
2023-01-29T03:54:49.903Z,31.37
2023-01-29T03:57:29.879Z,31.47
2023-01-29T04:00:06.280Z,32.20
2023-01-29T04:03:06.781Z,31.67
2023-01-29T04:05:44.000Z,32.63
2023-01-29T04:08:27.770Z,32.47
2023-01-29T04:11:00.299Z,32.30
2023-01-29T04:13:31.593Z,31.57
2023-01-29T04:16:02.709Z,32.03
2023-01-29T04:18:52.751Z,33.10
2023-01-29T04:21:29.083Z,31.73
2023-01-29T04:23:57.729Z,32.67
2023-01-29T04:26:42.391Z,31.97
2023-01-29T04:29:29.957Z,33.77
2023-01-29T04:32:10.827Z,30.80
2023-01-29T04:34:52.992Z,34.27
2023-01-29T04:37:34.123Z,33.97
2023-01-29T04:40:16.414Z,33.00
2023-01-29T04:42:53.376Z,35.60
2023-01-29T04:45:29.235Z,33.53
2023-01-29T04:48:06.747Z,34.43
2023-01-29T04:50:39.560Z,34.73
2023-01-29T04:53:17.210Z,34.70
2023-01-29T04:55:50.003Z,32.30
2023-01-29T04:58:27.927Z,34.03
2023-01-29T05:00:56.449Z,36.03
2023-01-29T05:03:28.184Z,34.77
2023-01-29T05:05:59.386Z,35.47
2023-01-29T05:08:31.202Z,35.03
2023-01-29T05:11:01.921Z,36.97
2023-01-29T05:13:32.972Z,36.23
2023-01-29T05:16:06.171Z,35.17
2023-01-29T05:18:35.066Z,35.30
2023-01-29T05:21:06.575Z,34.23
2023-01-29T05:23:36.892Z,34.83
2023-01-29T05:26:06.212Z,34.90
2023-01-29T05:28:33.687Z,37.50
2023-01-29T05:31:02.162Z,36.33
2023-01-29T05:33:32.308Z,35.57
2023-01-29T05:36:01.815Z,35.37
2023-01-29T05:38:30.291Z,37.20
2023-01-29T05:41:01.275Z,36.50
2023-01-29T05:43:29.793Z,36.27
2023-01-29T05:46:00.448Z,35.40
2023-01-29T05:48:31.460Z,35.67
2023-01-29T05:51:01.489Z,35.47
2023-01-29T05:53:30.397Z,36.97
2023-01-29T05:56:01.750Z,37.17
2023-01-29T05:58:32.103Z,36.57
2023-01-29T06:01:09.921Z,34.20
2023-01-29T06:03:38.478Z,34.47
2023-01-29T06:06:07.393Z,33.67
2023-01-29T06:08:35.824Z,36.23
2023-01-29T06:11:04.731Z,35.97
2023-01-29T06:13:34.535Z,34.40
2023-01-29T06:16:06.948Z,36.23
2023-01-29T06:18:36.695Z,35.97
2023-01-29T06:21:06.664Z,36.83
2023-01-29T06:23:35.200Z,34.33
2023-01-29T06:26:05.402Z,35.63
2023-01-29T06:28:35.445Z,34.70
2023-01-29T06:31:22.019Z,34.10
2023-01-29T06:33:52.434Z,34.37
2023-01-29T06:36:20.816Z,35.87
2023-01-29T06:38:49.405Z,35.67
2023-01-29T06:41:22.997Z,35.10
2023-01-29T06:43:53.520Z,34.87
2023-01-29T06:46:22.465Z,37.50
2023-01-29T06:48:50.938Z,34.87
2023-01-29T06:51:19.567Z,35.23
2023-01-29T06:53:47.897Z,36.67
2023-01-29T06:56:16.334Z,36.03
2023-01-29T06:58:44.722Z,35.37
2023-01-29T07:01:33.099Z,36.07
2023-01-29T07:04:03.565Z,34.63
2023-01-29T07:06:32.418Z,36.90
2023-01-29T07:09:00.927Z,34.03
2023-01-29T07:11:32.274Z,36.03
2023-01-29T07:14:01.235Z,35.07
2023-01-29T07:16:31.573Z,34.87
2023-01-29T07:19:00.145Z,36.00
2023-01-29T07:21:29.439Z,36.03
2023-01-29T07:23:57.807Z,34.77
2023-01-29T07:26:26.200Z,35.13
2023-01-29T07:28:54.594Z,35.43
2023-01-29T07:31:23.110Z,36.40
2023-01-29T07:33:53.234Z,37.90
2023-01-29T07:36:21.955Z,35.57
2023-01-29T07:38:51.284Z,35.47
2023-01-29T07:41:19.941Z,35.10
2023-01-29T07:43:48.964Z,34.80
2023-01-29T07:46:17.622Z,33.80
2023-01-29T07:48:46.187Z,33.47
2023-01-29T07:51:18.174Z,35.00
2023-01-29T07:53:47.194Z,36.23
2023-01-29T07:56:15.658Z,34.80
2023-01-29T07:58:44.161Z,35.23
2023-01-29T08:01:12.842Z,36.43
2023-01-29T08:03:41.273Z,35.47
2023-01-29T08:06:09.803Z,37.70
2023-01-29T08:08:39.592Z,36.13
2023-01-29T08:11:08.104Z,36.83
2023-01-29T08:13:36.539Z,34.93
2023-01-29T08:16:06.070Z,34.30
2023-01-29T08:18:34.622Z,35.90
2023-01-29T08:21:03.637Z,37.30
2023-01-29T08:23:32.388Z,36.87
2023-01-29T08:26:03.682Z,36.53
2023-01-29T08:28:32.744Z,35.57
2023-01-29T08:31:02.069Z,36.03
2023-01-29T08:33:38.752Z,35.70
2023-01-29T08:36:08.605Z,35.80
2023-01-29T08:38:37.528Z,37.93
2023-01-29T08:41:08.077Z,38.00
2023-01-29T08:43:37.119Z,36.20
2023-01-29T08:46:06.331Z,35.87
2023-01-29T08:48:35.226Z,33.90
2023-01-29T08:51:04.715Z,36.07
2023-01-29T08:53:33.838Z,35.47
2023-01-29T08:56:02.220Z,36.67
2023-01-29T08:58:32.108Z,37.33
2023-01-29T09:01:08.106Z,37.00
2023-01-29T09:03:36.953Z,35.73
2023-01-29T09:06:05.763Z,37.23
2023-01-29T09:08:34.444Z,35.23
2023-01-29T09:11:02.867Z,36.27
2023-01-29T09:13:32.625Z,35.67
2023-01-29T09:16:01.956Z,34.53
2023-01-29T09:18:31.488Z,34.93
2023-01-29T09:21:00.141Z,37.23
2023-01-29T09:23:28.642Z,35.47
2023-01-29T09:25:57.612Z,34.97
2023-01-29T09:28:26.117Z,34.40
2023-01-29T09:30:56.106Z,36.23
2023-01-29T09:33:26.327Z,34.80
2023-01-29T09:35:54.848Z,36.83
2023-01-29T09:38:23.409Z,36.60
2023-01-29T09:41:00.752Z,36.10
2023-01-29T09:43:41.738Z,35.50
2023-01-29T09:46:19.177Z,34.30
2023-01-29T09:48:49.560Z,35.93
2023-01-29T09:51:28.175Z,35.37
2023-01-29T09:54:05.753Z,35.53
2023-01-29T09:56:34.200Z,36.77
2023-01-29T09:59:02.700Z,36.17
2023-01-29T10:01:40.251Z,36.90
2023-01-29T10:04:30.420Z,34.03
2023-01-29T10:07:18.911Z,34.73
2023-01-29T10:10:23.792Z,36.07
2023-01-29T10:13:02.285Z,35.77
2023-01-29T10:15:43.681Z,35.57
2023-01-29T10:21:28.213Z,35.23
2023-01-29T10:24:07.331Z,34.73
2023-01-29T10:26:38.066Z,34.90
2023-01-29T10:29:08.826Z,37.53
2023-01-29T10:31:40.765Z,35.73
2023-01-29T10:34:16.130Z,33.97
2023-01-29T10:36:48.865Z,35.30
2023-01-29T10:39:19.504Z,36.73
2023-01-29T10:42:05.914Z,36.53
2023-01-29T10:45:03.250Z,36.40
2023-01-29T10:48:08.255Z,35.83
2023-01-29T10:50:49.121Z,32.93
2023-01-29T10:53:43.414Z,33.43
2023-01-29T10:56:31.156Z,35.97
2023-01-29T10:59:05.519Z,34.43
2023-01-29T11:01:34.176Z,33.23
2023-01-29T11:04:05.107Z,34.47
2023-01-29T11:06:35.195Z,33.93
2023-01-29T11:09:10.651Z,32.80
2023-01-29T11:11:45.278Z,35.07
2023-01-29T11:14:17.877Z,33.73
2023-01-29T11:16:49.388Z,33.20
2023-01-29T11:19:18.419Z,33.40
2023-01-29T11:21:57.879Z,30.53
2023-01-29T11:24:28.794Z,33.97
2023-01-29T11:27:00.086Z,32.87
2023-01-29T11:29:48.085Z,32.60
2023-01-29T11:32:27.226Z,33.43
2023-01-29T11:35:02.299Z,33.90
2023-01-29T11:37:36.612Z,32.07
2023-01-29T11:40:41.080Z,33.43
2023-01-29T11:43:31.762Z,32.47
2023-01-29T11:46:04.045Z,31.67
2023-01-29T11:48:43.222Z,31.27
2023-01-29T11:51:21.429Z,31.50
2023-01-29T11:53:54.029Z,33.37
2023-01-29T11:56:28.587Z,32.57
2023-01-29T11:58:58.746Z,31.07
2023-01-29T12:01:34.034Z,31.40
2023-01-29T12:04:04.107Z,33.23
2023-01-29T12:06:37.567Z,30.93
2023-01-29T12:09:15.493Z,31.87
2023-01-29T12:11:46.078Z,28.97
2023-01-29T12:14:29.484Z,30.53
2023-01-29T12:17:03.446Z,31.20
2023-01-29T12:19:39.891Z,29.87
2023-01-29T12:22:17.553Z,31.07
2023-01-29T12:24:52.120Z,30.77
2023-01-29T12:27:27.286Z,28.97
2023-01-29T12:30:00.923Z,28.90
2023-01-29T12:32:37.149Z,29.70
2023-01-29T12:35:15.652Z,28.00
2023-01-29T12:37:55.144Z,31.30
2023-01-29T12:40:28.348Z,30.67
2023-01-29T12:43:06.889Z,30.83
2023-01-29T12:45:37.909Z,29.63
2023-01-29T12:48:10.037Z,28.00
2023-01-29T12:50:39.766Z,29.43
2023-01-29T12:53:20.965Z,30.27
2023-01-29T12:55:55.541Z,28.83
2023-01-29T12:58:30.851Z,26.47
2023-01-29T13:01:06.196Z,27.17
2023-01-29T13:03:43.758Z,27.67
2023-01-29T13:06:15.797Z,26.43
2023-01-29T13:08:50.131Z,27.17
2023-01-29T13:11:23.468Z,28.17
2023-01-29T13:13:57.777Z,28.03
2023-01-29T13:16:29.603Z,29.67
2023-01-29T13:19:00.787Z,28.53
2023-01-29T13:21:36.278Z,28.13
2023-01-29T13:24:08.713Z,26.57
2023-01-29T13:26:38.098Z,27.50
2023-01-29T13:29:08.091Z,28.40
2023-01-29T13:31:39.173Z,29.47
2023-01-29T13:34:14.108Z,27.20
2023-01-29T13:36:45.512Z,29.57
2023-01-29T13:39:26.373Z,27.23
2023-01-29T13:41:56.584Z,28.60
2023-01-29T13:44:30.238Z,28.03
2023-01-29T13:47:02.023Z,29.87
2023-01-29T13:49:39.984Z,28.87
2023-01-29T13:52:33.245Z,32.20
2023-01-29T13:55:05.397Z,29.97
2023-01-29T13:57:56.037Z,27.47
2023-01-29T14:01:01.154Z,28.30
2023-01-29T14:04:10.397Z,29.10
2023-01-29T14:06:48.163Z,26.07
2023-01-29T14:09:55.407Z,28.57
2023-01-29T14:12:42.663Z,27.93
2023-01-29T14:15:21.919Z,28.77
2023-01-29T14:18:19.058Z,26.10
2023-01-29T14:21:21.727Z,26.13
2023-01-29T14:23:52.165Z,27.03
2023-01-29T14:26:32.473Z,27.83
2023-01-29T14:29:09.443Z,27.13
2023-01-29T14:31:42.833Z,26.10
2023-01-29T14:34:24.149Z,27.33
2023-01-29T14:36:56.640Z,26.07
2023-01-29T14:39:33.210Z,27.40
2023-01-29T14:42:04.795Z,25.03
2023-01-29T14:45:07.333Z,26.17
2023-01-29T14:47:56.049Z,26.50
2023-01-29T14:50:51.637Z,26.03
2023-01-29T14:53:26.693Z,24.97
2023-01-29T14:56:00.006Z,24.33
2023-01-29T14:58:38.657Z,24.70
2023-01-29T15:01:17.264Z,25.93
2023-01-29T15:03:49.020Z,24.67
2023-01-29T15:06:25.040Z,24.57
2023-01-29T15:09:02.065Z,25.53
2023-01-29T15:11:38.551Z,26.87
2023-01-29T15:14:25.033Z,25.27
2023-01-29T15:17:03.804Z,26.03
2023-01-29T15:19:37.177Z,26.10
2023-01-29T15:22:13.012Z,25.43
2023-01-29T15:24:43.212Z,26.20
2023-01-29T15:27:18.034Z,27.03
2023-01-29T15:29:52.325Z,26.10
2023-01-29T15:32:30.906Z,25.30
2023-01-29T15:35:00.650Z,25.70
2023-01-29T15:37:33.547Z,25.20
2023-01-29T15:40:03.334Z,26.57
2023-01-29T15:42:46.363Z,26.27
2023-01-29T15:45:27.480Z,25.83
2023-01-29T15:48:00.820Z,26.77
2023-01-29T15:50:30.409Z,24.07
2023-01-29T15:53:05.053Z,27.23
2023-01-29T15:55:34.526Z,27.07
2023-01-29T15:58:03.163Z,28.03
2023-01-29T16:00:32.461Z,28.20
2023-01-29T16:03:01.935Z,27.07
2023-01-29T16:05:33.314Z,27.10
2023-01-29T16:08:03.858Z,26.13
2023-01-29T16:10:33.865Z,26.80
2023-01-29T16:13:02.684Z,24.33
2023-01-29T16:15:35.994Z,26.30
2023-01-29T16:18:20.541Z,26.43
2023-01-29T16:20:54.160Z,26.20
2023-01-29T16:23:27.738Z,27.47
2023-01-29T16:26:02.639Z,25.67
2023-01-29T16:28:31.794Z,25.07
2023-01-29T16:31:03.796Z,25.20
2023-01-29T16:33:36.156Z,27.23
2023-01-29T16:36:11.743Z,26.30
2023-01-29T16:38:44.368Z,25.80
2023-01-29T16:41:28.840Z,24.17
2023-01-29T16:43:59.588Z,24.63
2023-01-29T16:46:36.158Z,25.23
2023-01-29T16:49:21.496Z,26.37
2023-01-29T16:51:49.877Z,25.00
2023-01-29T16:54:23.774Z,25.13
2023-01-29T16:56:54.457Z,25.23
2023-01-29T16:59:34.008Z,24.40
2023-01-29T17:02:03.220Z,25.97
2023-01-29T17:04:41.903Z,24.47
2023-01-29T17:07:18.555Z,25.67
2023-01-29T17:09:52.678Z,25.53
2023-01-29T17:12:23.844Z,24.90
2023-01-29T17:14:57.686Z,25.20
2023-01-29T17:17:31.764Z,25.07
2023-01-29T17:20:07.738Z,24.47
2023-01-29T17:22:36.164Z,24.17
2023-01-29T17:25:07.068Z,24.70
2023-01-29T17:27:35.525Z,25.47
2023-01-29T17:30:05.012Z,23.77
2023-01-29T17:32:42.908Z,24.33
2023-01-29T17:35:14.698Z,25.43
2023-01-29T17:37:44.368Z,24.13
2023-01-29T17:40:23.679Z,26.07
2023-01-29T17:42:52.325Z,25.83
2023-01-29T17:45:20.903Z,24.47
2023-01-29T17:47:49.395Z,25.37
2023-01-29T17:50:24.019Z,23.67
2023-01-29T17:52:53.351Z,22.43
2023-01-29T17:55:26.630Z,25.30
2023-01-29T17:57:55.230Z,23.67
2023-01-29T18:00:27.169Z,24.33
2023-01-29T18:02:55.951Z,23.83
2023-01-29T18:05:24.395Z,24.33
2023-01-29T18:07:54.797Z,23.40
2023-01-29T18:10:24.566Z,23.90
2023-01-29T18:12:53.056Z,23.80
2023-01-29T18:15:21.958Z,25.67
2023-01-29T18:17:53.072Z,23.63
2023-01-29T18:20:25.818Z,25.07
2023-01-29T18:22:54.789Z,24.80
2023-01-29T18:25:26.790Z,24.03
2023-01-29T18:27:55.479Z,23.50
2023-01-29T18:30:24.467Z,22.77
2023-01-29T18:32:53.477Z,23.40
2023-01-29T18:35:22.887Z,24.90
2023-01-29T18:37:52.701Z,24.30
2023-01-29T18:40:21.263Z,25.30
2023-01-29T18:42:51.364Z,24.47
2023-01-29T18:45:20.252Z,23.17
2023-01-29T18:47:49.456Z,25.07
2023-01-29T18:50:18.483Z,23.90
2023-01-29T18:52:47.170Z,23.33
2023-01-29T18:55:16.050Z,24.93
2023-01-29T18:58:28.621Z,24.73
2023-01-29T19:00:35.343Z,23.00
2023-01-29T19:03:04.063Z,23.30
2023-01-29T19:05:35.279Z,22.80
2023-01-29T19:08:05.381Z,22.93
2023-01-29T19:10:35.081Z,23.40
2023-01-29T19:13:05.786Z,23.60
2023-01-29T19:15:36.652Z,23.67
2023-01-29T19:18:05.265Z,22.87
2023-01-29T19:20:33.877Z,22.43
2023-01-29T19:23:02.380Z,23.23
2023-01-29T19:25:30.944Z,25.07
2023-01-29T19:27:59.717Z,25.80
2023-01-29T19:30:28.192Z,24.67
2023-01-29T19:32:58.264Z,24.53
2023-01-29T19:35:26.706Z,23.93
2023-01-29T19:37:55.231Z,26.13
2023-01-29T19:40:24.430Z,26.37
2023-01-29T19:42:54.918Z,23.87
2023-01-29T19:45:49.976Z,25.33
2023-01-29T19:48:17.788Z,24.50
2023-01-29T19:50:52.996Z,25.53
2023-01-29T19:53:21.743Z,24.13
2023-01-29T19:55:58.652Z,24.27
2023-01-29T19:58:27.334Z,25.20
2023-01-29T20:00:57.136Z,24.67
2023-01-29T20:03:28.039Z,23.07
2023-01-29T20:05:56.399Z,26.43
2023-01-29T20:08:25.095Z,24.40
2023-01-29T20:10:53.742Z,24.00
2023-01-29T20:13:22.264Z,24.40
2023-01-29T20:15:53.061Z,23.93
2023-01-29T20:18:21.663Z,23.17
2023-01-29T20:20:53.504Z,24.93
2023-01-29T20:23:36.677Z,24.97
2023-01-29T20:26:09.149Z,22.90
2023-01-29T20:28:37.844Z,24.93
2023-01-29T20:31:07.148Z,24.63
2023-01-29T20:33:38.755Z,24.33
2023-01-29T20:36:11.648Z,25.53
2023-01-29T20:38:40.584Z,23.93
2023-01-29T20:41:11.613Z,25.03
2023-01-29T20:43:40.547Z,26.17
2023-01-29T20:46:10.125Z,25.77
2023-01-29T20:48:38.911Z,25.20
2023-01-29T20:51:13.131Z,24.90
2023-01-29T20:53:43.263Z,24.73
2023-01-29T20:56:12.947Z,24.97
2023-01-29T20:58:42.200Z,23.87
2023-01-29T21:01:12.081Z,23.67
2023-01-29T21:03:41.615Z,23.57
2023-01-29T21:06:12.740Z,24.43
2023-01-29T21:08:41.995Z,24.03
2023-01-29T21:11:11.003Z,24.80
2023-01-29T21:13:39.991Z,23.97
2023-01-29T21:16:10.960Z,25.20
2023-01-29T21:18:39.455Z,24.37
2023-01-29T21:21:08.019Z,24.57
2023-01-29T21:23:38.505Z,24.57
2023-01-29T21:26:08.031Z,27.43
2023-01-29T21:28:36.815Z,25.23
2023-01-29T21:31:06.866Z,26.30
2023-01-29T21:33:36.410Z,24.17
2023-01-29T21:36:05.939Z,24.77
2023-01-29T21:38:34.650Z,26.20
2023-01-29T21:41:07.245Z,26.63
2023-01-29T21:43:35.253Z,25.47
2023-01-29T21:46:06.159Z,25.03
2023-01-29T21:48:34.916Z,26.20
2023-01-29T21:51:03.425Z,26.47
2023-01-29T21:53:32.725Z,25.00
2023-01-29T21:56:02.218Z,26.57
2023-01-29T21:58:32.397Z,27.03
2023-01-29T22:01:36.849Z,26.07
2023-01-29T22:03:49.654Z,25.83
2023-01-29T22:06:18.407Z,26.40
2023-01-29T22:08:47.335Z,27.07
2023-01-29T22:11:17.310Z,25.90
2023-01-29T22:13:47.533Z,27.00
2023-01-29T22:16:16.525Z,26.67
2023-01-29T22:18:45.139Z,27.23
2023-01-29T22:21:14.247Z,29.07
2023-01-29T22:23:43.337Z,27.67
2023-01-29T22:26:12.594Z,29.03
2023-01-29T22:28:41.154Z,28.20
2023-01-29T22:31:11.174Z,28.10
2023-01-29T22:33:39.838Z,29.53
2023-01-29T22:36:09.607Z,27.87
2023-01-29T22:38:38.357Z,29.50
2023-01-29T22:41:07.021Z,27.83
2023-01-29T22:43:35.579Z,29.10
2023-01-29T22:46:08.781Z,29.50
2023-01-29T22:48:38.965Z,29.80
2023-01-29T22:51:13.926Z,29.30
2023-01-29T22:53:44.289Z,31.37
2023-01-29T22:56:13.072Z,29.10
2023-01-29T22:58:42.250Z,30.97
2023-01-29T23:01:11.170Z,30.40
2023-01-29T23:03:40.932Z,29.30
2023-01-29T23:06:09.406Z,30.73
2023-01-29T23:08:38.115Z,29.80
2023-01-29T23:11:15.078Z,30.33
2023-01-29T23:13:44.708Z,31.03
2023-01-29T23:16:14.130Z,30.80
2023-01-29T23:18:44.803Z,30.23
2023-01-29T23:21:14.217Z,29.50
2023-01-29T23:23:44.869Z,30.67
2023-01-29T23:26:31.369Z,30.60
2023-01-29T23:29:00.416Z,28.80
2023-01-29T23:31:28.924Z,29.53
2023-01-29T23:33:58.612Z,29.87
2023-01-29T23:36:27.142Z,29.47
2023-01-29T23:38:55.626Z,27.90
2023-01-29T23:41:24.446Z,29.00
2023-01-29T23:43:53.613Z,28.23
2023-01-29T23:46:22.161Z,29.83
2023-01-29T23:48:53.311Z,29.43
2023-01-29T23:51:23.211Z,29.57
2023-01-29T23:53:51.557Z,28.90
2023-01-29T23:56:20.028Z,29.13
2023-01-29T23:58:48.507Z,29.07
